Rochester, MN (55901)

10:19 PM CDT on August 23, 2016 (GMT -0500)
9th Ave and Elton Hills Drive | | Change Station

Elev 1037 ft 44.05 °N, 92.48 °W | Updated 18 seconds ago

Thunderstorms and Rain
Thunderstorm Rain Mist
67.1 °F
Feels Like 67.1 °F
N
2.0
Wind Variable Wind from NNW

Today
High -- | Low -- °F
--% Chance of Precip.
Yesterday
High -- | Low -- °F
Precip. -- in
Pressure 29.94 in
Visibility 3.0 miles
Clouds Few 1000 ft
Mostly Cloudy 5000 ft
Overcast 6500 ft
Dew Point 66 °F
Humidity 98%
Rainfall 0.40 in
Snow Depth Not available.
6:23 AM 8:00 PM
Waning Gibbous, 62% visible
SPECI KRST 240303Z 10007KT 3SM TSRA BR FEW010 BKN050 OVC065 19/19 A2994 RMK AO2 TWR VIS 4 LTG DSNT ALQDS PRESFR P0005 T01940189
Pressure 29.94 in
Visibility 3.0 miles
Clouds Few 1000 ft
Mostly Cloudy 5000 ft
Overcast 6500 ft
Dew Point 66 °F
Humidity 98%
Rainfall 0.40 in
Snow Depth Not available.
6:23 AM 8:00 PM
Waning Gibbous, 62% visible
SPECI KRST 240303Z 10007KT 3SM TSRA BR FEW010 BKN050 OVC065 19/19 A2994 RMK AO2 TWR VIS 4 LTG DSNT ALQDS PRESFR P0005 T01940189

10-Day Weather Forecast

Almanac

Astronomy

Aug. 23, 2016 Rise Set
Actual Time
Civil Twilight
Nautical Twilight
Astronomical Twilight
Moon
Length of Visible Light
Length of Day
Tomorrow will be .
, % of the Moon is Illuminated

Today's Extremes

State Highs State Lows

Community

WunderPhotos

Upload Photos

1,934,540 photos uploaded!

WunderBlog® & News

Nearby

Air Quality

  Air Quality AQ Index Pollutant
Not available.

Snow Depth

Station Depth Elevation

Earthquake Activity

City Distance Mag. Time & Date
Minimum magnitude displayed is 2.5.

Coastal Water Temperatures

Place Temperature

Stations

Nearby Weather Stations

Station Location Temp. Windchill Dew Point Humidity Wind Precip. Elev Updated Type
                   

Watches & Warnings

There are currently no watches in effect.